Waswanipi, Canada
Current Conditions -  °F | °C
As of 11:00 AM on Thursday 27 Nov 2014 (Local Time) from CYNM Reporting Station
Scattered Clouds Scattered Clouds  
Wind Chill: -14°   Ceiling: Unl
Heat Index: -2°   Visibility: 9mi
Dew Point: -6°   Wind: 6mph
Humidity: 85%   Direction: 350°N
Pressure: 30.19"   Gusts: NA
Location:  49.65°N, 76.48°W
Report Text: CYNM 271600Z AUTO 35005KT 9SM FEW008 SCT065 SCT087 M19/M21 A3019 RMK ICG SLP252
Loading
Personal Weather Stations






























Interactive Weather Map New forecast layout! Learn more

10-Day Weather Forecast

Advertisements
Track Severe Weather on mobile